Time;durP1;ratioP1;P1;durP2;ratioP2;P2;SDS_P1;SDS_P2;PMS_P1;PMS_P2;Temp;Humidity;BMP_temperature;BMP_pressure;BME280_temperature;BME280_humidity;BME280_pressure;Samples;Min_cycle;Max_cycle;Signal;HPM_P1;HPM_P2
2022/08/31 00:04:25;;;;;;;;;;;22.10;70.00;;;21.52;64.73;96340.66;4181788;33;20000;-86
2022/08/31 00:06:54;;;;;;;;;;;22.10;70.10;;;21.52;64.39;96335.06;4181430;33;19952;-86
2022/08/31 00:09:22;;;;;;;;;;;22.10;70.00;;;21.53;64.58;96342.28;4204926;33;20040;-86
2022/08/31 00:11:53;;;;;;;;;;;22.10;70.00;;;21.52;64.32;96338.69;4181806;33;20156;-86
2022/08/31 00:14:21;;;;;;;;;;;22.10;69.90;;;21.51;64.06;96333.44;4181719;33;19903;-86
2022/08/31 00:16:50;;;;;;;;;;;22.10;69.80;;;21.52;64.38;96332.28;4181291;33;19988;-86
2022/08/31 00:19:18;;;;;;;;;;;22.10;70.00;;;21.52;64.45;96332.28;4181340;33;19903;-86
2022/08/31 00:21:47;;;;;;;;;;;22.10;70.00;;;21.51;64.10;96336.22;4181787;33;20011;-86
2022/08/31 00:24:15;;;;;;;;;;;22.10;69.80;;;21.51;64.28;96339.03;4204808;33;20117;-86
2022/08/31 00:26:44;;;;;;;;;;;22.10;70.00;;;21.50;64.25;96329.03;4204303;33;19914;-86
2022/08/31 00:29:14;;;;;;;;;;;22.10;69.90;;;21.50;64.19;96331.81;4181673;33;20164;-86
2022/08/31 00:31:43;;;;;;;;;;;22.10;69.90;;;21.51;64.30;96325.09;4181869;33;19910;-86
2022/08/31 00:34:11;;;;;;;;;;;22.10;70.00;;;21.49;64.64;96325.44;4181490;33;19902;-86
2022/08/31 00:36:40;;;;;;;;;;;22.10;70.10;;;21.50;64.42;96329.03;4181137;33;19902;-86
2022/08/31 00:39:09;;;;;;;;;;;22.10;70.10;;;21.50;64.41;96331.81;4204622;33;19903;-86
2022/08/31 00:41:38;;;;;;;;;;;22.10;70.00;;;21.50;64.21;96331.81;4181636;33;19903;-86
2022/08/31 00:44:08;;;;;;;;;;;22.10;69.70;;;21.49;64.20;96324.63;4181367;33;19903;-86
2022/08/31 00:46:40;;;;;;;;;;;22.10;69.70;;;21.47;64.25;96324.97;4181087;33;20256;-86
2022/08/31 00:49:10;;;;;;;;;;;22.10;69.80;;;21.46;64.40;96321.38;4181275;33;19903;-86
2022/08/31 00:51:42;;;;;;;;;;;22.10;69.90;;;21.49;64.14;96324.63;4204654;33;20153;-86
2022/08/31 00:54:11;;;;;;;;;;;22.10;69.90;;;21.49;64.44;96330.22;4204558;33;20165;-86
2022/08/31 00:56:40;;;;;;;;;;;22.10;70.00;;;21.48;64.43;96328.56;4205220;33;20033;-86
2022/08/31 00:59:09;;;;;;;;;;;22.10;70.00;;;21.46;64.02;96329.72;4204435;33;20049;-86
2022/08/31 01:01:39;;;;;;;;;;;22.10;69.90;;;21.48;64.28;96325.78;4181535;33;20173;-86
2022/08/31 01:04:07;;;;;;;;;;;22.10;70.60;;;21.47;64.35;96316.59;4181383;33;19971;-86
2022/08/31 01:06:36;;;;;;;;;;;22.10;69.90;;;21.48;64.57;96317.44;4180775;33;19902;-86
2022/08/31 01:09:06;;;;;;;;;;;22.10;70.10;;;21.46;64.26;96315.81;4204379;33;19902;-86
2022/08/31 01:11:34;;;;;;;;;;;22.10;70.10;;;21.46;64.59;96321.38;4204556;33;19902;-86
2022/08/31 01:14:03;;;;;;;;;;;22.10;70.20;;;21.46;64.61;96321.38;4181365;33;20128;-86
2022/08/31 01:16:35;;;;;;;;;;;22.10;70.30;;;21.46;64.64;96314.97;4203765;33;19903;-86
2022/08/31 01:19:07;;;;;;;;;;;22.10;70.30;;;21.44;64.31;96312.53;4181349;33;20125;-86
2022/08/31 01:21:40;;;;;;;;;;;22.10;70.10;;;21.46;64.20;96320.53;4181228;33;20015;-86
2022/08/31 01:24:11;;;;;;;;;;;22.10;70.10;;;21.45;64.28;96322.53;4204355;33;20077;-85
2022/08/31 01:26:39;;;;;;;;;;;22.10;69.90;;;21.45;64.28;96319.75;4180679;33;20130;-85
2022/08/31 01:29:08;;;;;;;;;;;22.00;69.70;;;21.44;64.37;96318.09;4200162;33;20396;-86
2022/08/31 01:31:41;;;;;;;;;;;22.10;70.00;;;21.43;64.22;96327.63;4211404;33;20041;-87
2022/08/31 01:34:09;;;;;;;;;;;22.00;69.80;;;21.45;64.14;96319.75;4234804;33;19902;-86
2022/08/31 01:36:39;;;;;;;;;;;22.10;69.90;;;21.44;64.36;96322.84;4210947;33;19983;-86
2022/08/31 01:39:10;;;;;;;;;;;22.00;70.00;;;21.44;64.15;96318.09;4211248;33;20095;-86
2022/08/31 01:41:42;;;;;;;;;;;22.00;69.90;;;21.43;64.35;96322.03;4234994;33;19910;-86
2022/08/31 01:44:11;;;;;;;;;;;22.10;70.10;;;21.44;64.29;96328.41;4211239;33;19902;-87
2022/08/31 01:46:39;;;;;;;;;;;22.00;70.00;;;21.44;64.43;96329.25;4210737;33;19909;-85
2022/08/31 01:49:08;;;;;;;;;;;22.00;70.00;;;21.43;64.23;96326.78;4211163;33;20028;-86
2022/08/31 01:51:37;;;;;;;;;;;22.00;70.10;;;21.41;64.33;96324.34;4234583;33;20240;-86
2022/08/31 01:54:06;;;;;;;;;;;22.00;69.80;;;21.44;64.38;96323.69;4211258;33;20291;-86
2022/08/31 01:56:38;;;;;;;;;;;22.00;69.80;;;21.43;64.32;96327.63;4210599;33;19985;-86
2022/08/31 01:59:10;;;;;;;;;;;22.00;70.00;;;21.43;64.13;96327.63;4234544;33;20008;-86
2022/08/31 02:01:57;;;;;;;;;;;22.00;70.10;;;21.43;64.28;96327.63;4234459;33;19939;-86
2022/08/31 02:04:27;;;;;;;;;;;22.00;70.00;;;21.43;64.32;96332.34;4210983;33;19985;-85
2022/08/31 02:06:59;;;;;;;;;;;22.00;70.00;;;21.41;64.36;96324.34;4233949;33;19903;-86
2022/08/31 02:09:29;;;;;;;;;;;22.00;70.10;;;21.41;64.49;96321.56;4210782;33;19902;-86
2022/08/31 02:12:01;;;;;;;;;;;22.00;70.20;;;21.41;64.75;96316.00;4208899;33;19903;-86
2022/08/31 02:14:29;;;;;;;;;;;22.00;70.10;;;21.42;64.46;96316.81;4183176;33;20229;-86
2022/08/31 02:16:58;;;;;;;;;;;22.00;70.00;;;21.41;64.56;96318.78;4205416;33;20028;-85
2022/08/31 02:19:27;;;;;;;;;;;22.00;70.10;;;21.41;64.51;96318.78;4205110;33;19949;-86
2022/08/31 02:21:58;;;;;;;;;;;22.00;70.30;;;21.40;64.74;96311.56;4205860;33;20233;-86
2022/08/31 02:24:26;;;;;;;;;;;22.00;70.20;;;21.39;64.50;96314.72;4206207;33;19910;-87
2022/08/31 02:26:57;;;;;;;;;;;22.00;70.20;;;21.38;64.51;96305.53;4182484;33;19902;-87
2022/08/31 02:29:29;;;;;;;;;;;22.00;70.30;;;21.40;64.77;96308.78;4182857;33;20252;-86
2022/08/31 02:31:58;;;;;;;;;;;22.00;70.30;;;21.39;64.73;96309.13;4183051;33;19959;-86
2022/08/31 02:34:26;;;;;;;;;;;22.00;70.20;;;21.37;64.59;96312.25;4182766;33;20094;-86
2022/08/31 02:36:55;;;;;;;;;;;22.00;70.10;;;21.39;64.60;96309.94;4182315;33;19903;-86
2022/08/31 02:39:24;;;;;;;;;;;22.00;70.20;;;21.37;64.50;96301.09;4182731;33;19911;-86
2022/08/31 02:41:52;;;;;;;;;;;22.00;70.30;;;21.39;64.62;96300.78;4182642;33;19974;-86
2022/08/31 02:44:21;;;;;;;;;;;22.00;70.30;;;21.38;64.77;96302.75;4206221;33;20091;-86
2022/08/31 02:46:51;;;;;;;;;;;22.00;70.40;;;21.38;64.67;96311.09;4210037;33;20057;-87
2022/08/31 02:49:49;;;;;;;;;;;22.00;70.40;;;21.38;64.75;96307.50;4194096;33;20042;-86
2022/08/31 02:52:18;;;;;;;;;;;22.00;70.30;;;21.38;64.62;96307.50;4229300;33;20301;-86
2022/08/31 02:54:46;;;;;;;;;;;22.00;70.10;;;21.38;64.54;96299.16;4182676;33;20241;-87
2022/08/31 02:57:15;;;;;;;;;;;22.00;70.20;;;21.37;64.65;96306.66;4228735;33;19910;-87
2022/08/31 02:59:44;;;;;;;;;;;22.00;70.30;;;21.36;64.35;96299.50;4182555;33;19902;-86
2022/08/31 03:02:14;;;;;;;;;;;22.00;70.10;;;21.37;64.29;96301.09;4205700;33;20263;-87
2022/08/31 03:04:43;;;;;;;;;;;22.00;69.90;;;21.37;63.98;96301.09;4205628;33;19902;-86
2022/08/31 03:07:12;;;;;;;;;;;22.00;69.80;;;21.36;64.27;96293.94;4182048;33;20181;-86
2022/08/31 03:09:40;;;;;;;;;;;22.00;70.00;;;21.35;64.51;96292.31;4182128;33;19914;-86
2022/08/31 03:12:10;;;;;;;;;;;22.00;70.10;;;21.36;64.82;96298.66;4228964;33;19902;-86
2022/08/31 03:14:40;;;;;;;;;;;22.00;70.10;;;21.34;64.33;96296.22;4182427;33;20451;-86
2022/08/31 03:17:08;;;;;;;;;;;22.00;70.10;;;21.35;63.97;96292.31;4181692;33;19902;-87
2022/08/31 03:19:39;;;;;;;;;;;22.00;69.90;;;21.35;64.36;96289.50;4182217;33;20180;-87
2022/08/31 03:22:07;;;;;;;;;;;21.90;69.80;;;21.33;64.28;96300.16;4228865;33;19903;-87
2022/08/31 03:24:36;;;;;;;;;;;22.00;69.70;;;21.35;64.17;96297.88;4205353;33;19910;-87
2022/08/31 03:27:06;;;;;;;;;;;22.00;69.80;;;21.34;64.56;96293.44;4181727;33;19910;-87
2022/08/31 03:29:35;;;;;;;;;;;21.90;70.20;;;21.34;64.45;96296.22;4228814;33;19903;-86
2022/08/31 03:32:17;;;;;;;;;;;21.90;70.20;;;21.34;64.54;96299.03;4182431;33;20117;-87
2022/08/31 03:34:53;;;;;;;;;;;21.90;70.10;;;21.35;64.29;96294.25;4205481;33;19903;-87
2022/08/31 03:37:22;;;;;;;;;;;21.90;70.00;;;21.32;64.37;96292.97;4204797;33;19910;-86
2022/08/31 03:39:51;;;;;;;;;;;21.90;70.00;;;21.33;64.46;96300.16;4182014;33;19910;-87
2022/08/31 03:42:20;;;;;;;;;;;21.90;70.00;;;21.33;64.50;96294.59;4182194;33;20305;-87
2022/08/31 03:44:48;;;;;;;;;;;21.90;70.00;;;21.32;64.64;96292.97;4228679;33;19947;-86
2022/08/31 03:47:23;;;;;;;;;;;21.90;70.00;;;21.33;64.01;96300.16;4181457;33;19902;-86
2022/08/31 03:49:53;;;;;;;;;;;21.90;69.90;;;21.34;64.25;96306.53;4198678;33;19921;-87
2022/08/31 03:52:27;;;;;;;;;;;21.90;70.00;;;21.33;64.14;96302.94;4209408;33;19981;-86
2022/08/31 03:55:07;;;;;;;;;;;21.90;69.90;;;21.33;64.31;96311.31;4233396;33;19991;-87
2022/08/31 03:57:35;;;;;;;;;;;21.90;69.90;;;21.33;64.40;96308.53;4237570;33;20319;-86
2022/08/31 04:00:06;;;;;;;;;;;21.90;69.90;;;21.33;64.15;96314.09;4233191;33;20213;-87
2022/08/31 04:02:44;;;;;;;;;;;21.90;70.00;;;21.33;64.18;96308.53;4233220;33;19902;-86
2022/08/31 04:05:49;;;;;;;;;;;21.90;70.00;;;21.33;64.43;96316.88;4208607;33;19925;-87
2022/08/31 04:08:36;;;;;;;;;;;21.90;70.20;;;21.31;64.48;96308.84;4231286;33;20221;-87
2022/08/31 04:11:26;;;;;;;;;;;21.90;70.10;;;21.33;64.71;96310.47;4204801;33;20139;-87
2022/08/31 04:14:23;;;;;;;;;;;21.90;70.10;;;21.32;64.75;96304.09;4133184;33;19904;-87
2022/08/31 04:17:10;;;;;;;;;;;21.90;70.10;;;21.32;64.77;96312.47;4204375;33;19903;-87
2022/08/31 04:19:45;;;;;;;;;;;21.90;70.30;;;21.31;64.76;96313.59;4204688;33;19902;-86
2022/08/31 04:22:47;;;;;;;;;;;21.90;70.50;;;21.31;64.74;96319.19;4205026;33;19909;-87
2022/08/31 04:25:43;;;;;;;;;;;21.90;70.40;;;21.30;64.72;96311.97;4201546;33;20042;-86
2022/08/31 04:28:12;;;;;;;;;;;21.90;70.30;;;21.31;64.61;96319.19;4204778;33;19902;-87
2022/08/31 04:30:42;;;;;;;;;;;21.90;70.30;;;21.31;64.75;96313.59;4181650;33;19903;-86
2022/08/31 04:33:12;;;;;;;;;;;21.90;70.50;;;21.31;64.73;96310.81;4204732;33;19910;-87
2022/08/31 04:35:40;;;;;;;;;;;21.90;70.40;;;21.30;64.80;96306.41;4181177;33;20238;-87
2022/08/31 04:38:11;;;;;;;;;;;21.90;70.40;;;21.31;64.61;96305.25;4181603;33;19903;-87
2022/08/31 04:40:40;;;;;;;;;;;21.90;70.30;;;21.30;64.77;96311.97;4204677;33;19903;-86
2022/08/31 04:43:09;;;;;;;;;;;21.90;70.30;;;21.31;64.58;96308.84;4181500;33;19909;-86
2022/08/31 04:45:42;;;;;;;;;;;21.90;70.50;;;21.30;64.50;96298.06;4180994;33;19910;-86
2022/08/31 04:48:11;;;;;;;;;;;21.90;70.30;;;21.29;64.64;96300.03;4204682;33;20039;-86
2022/08/31 04:50:40;;;;;;;;;;;21.90;70.40;;;21.30;64.72;96293.28;4181472;33;20115;-86
2022/08/31 04:53:11;;;;;;;;;;;21.90;70.50;;;21.28;64.93;96292.00;4181412;33;20281;-86
2022/08/31 04:55:40;;;;;;;;;;;21.90;70.60;;;21.27;64.56;96294.00;4181163;33;20213;-86
2022/08/31 04:58:11;;;;;;;;;;;21.90;70.30;;;21.29;64.61;96299.22;4181265;33;20132;-87
2022/08/31 05:00:42;;;;;;;;;;;21.90;70.40;;;21.28;65.00;96298.41;4181325;33;19910;-87
2022/08/31 05:03:30;;;;;;;;;;;21.90;70.70;;;21.28;65.11;96303.16;4204533;33;20062;-85
2022/08/31 05:05:58;;;;;;;;;;;21.90;70.80;;;21.28;65.15;96305.94;4182834;33;19910;-86
2022/08/31 05:08:29;;;;;;;;;;;21.90;70.80;;;21.27;65.11;96299.56;4206884;33;20230;-87
2022/08/31 05:10:58;;;;;;;;;;;21.90;70.80;;;21.28;65.17;96308.72;4183851;33;20340;-86
2022/08/31 05:13:28;;;;;;;;;;;21.90;70.80;;;21.28;65.08;96303.16;4183780;33;20401;-83
2022/08/31 05:15:56;;;;;;;;;;;21.90;70.80;;;21.29;65.11;96307.56;4183388;33;19903;-85
2022/08/31 05:18:25;;;;;;;;;;;21.90;70.90;;;21.28;65.00;96309.53;4206774;33;20218;-85
2022/08/31 05:21:09;;;;;;;;;;;21.90;70.80;;;21.27;65.22;96304.28;4206831;33;20391;-85
2022/08/31 05:23:40;;;;;;;;;;;21.90;71.70;;;21.27;65.04;96307.06;4206774;33;20125;-85
2022/08/31 05:26:09;;;;;;;;;;;21.90;70.60;;;21.27;64.64;96305.13;4183275;33;20335;-84
2022/08/31 05:28:39;;;;;;;;;;;21.90;70.40;;;21.27;64.81;96307.06;4183429;33;19903;-85
2022/08/31 05:31:07;;;;;;;;;;;21.90;70.50;;;21.27;64.98;96307.91;4183704;33;19903;-84
2022/08/31 05:33:43;;;;;;;;;;;21.90;70.60;;;21.27;65.05;96310.69;4183554;33;19902;-86
2022/08/31 05:36:14;;;;;;;;;;;21.90;70.70;;;21.27;64.96;96307.91;4206318;33;19902;-86
2022/08/31 05:38:44;;;;;;;;;;;21.90;70.70;;;21.28;64.85;96308.72;4206821;33;20005;-86
2022/08/31 05:41:14;;;;;;;;;;;21.90;70.60;;;21.26;65.06;96305.44;4183448;33;20078;-87
2022/08/31 05:44:05;;;;;;;;;;;21.90;70.60;;;21.27;64.88;96298.72;4183464;33;19902;-86
2022/08/31 05:46:46;;;;;;;;;;;21.90;70.60;;;21.26;65.07;96300.72;4186603;33;20130;-86
2022/08/31 05:49:14;;;;;;;;;;;21.90;70.80;;;21.29;65.09;96304.78;4183225;33;19902;-86
2022/08/31 05:51:43;;;;;;;;;;;21.90;70.80;;;21.28;65.10;96309.53;4206657;33;19902;-86
2022/08/31 05:54:14;;;;;;;;;;;21.90;70.80;;;21.28;64.98;96303.16;4183369;33;20110;-87
2022/08/31 05:56:43;;;;;;;;;;;21.90;70.80;;;21.28;65.28;96295.63;4182745;33;20233;-86
2022/08/31 05:59:13;;;;;;;;;;;21.90;70.90;;;21.28;65.16;96301.19;4206416;33;20387;-86
2022/08/31 06:01:44;;;;;;;;;;;21.90;70.90;;;21.29;65.21;96302.00;4183354;33;19937;-86
2022/08/31 06:04:24;;;;;;;;;;;21.90;70.80;;;21.29;65.04;96299.22;4206363;33;19918;-86
2022/08/31 06:06:53;;;;;;;;;;;21.90;70.90;;;21.30;65.22;96298.06;4205855;33;20415;-86
2022/08/31 06:09:28;;;;;;;;;;;21.90;70.90;;;21.30;65.25;96289.69;4229553;33;19910;-86
2022/08/31 06:11:57;;;;;;;;;;;21.90;71.00;;;21.30;65.28;96300.84;4183225;33;19902;-86
2022/08/31 06:14:27;;;;;;;;;;;21.90;70.80;;;21.30;65.29;96301.63;4206267;33;19913;-85
2022/08/31 06:16:58;;;;;;;;;;;21.90;70.90;;;21.32;65.38;96306.88;4228803;33;19902;-85
2022/08/31 06:19:27;;;;;;;;;;;21.90;71.10;;;21.33;65.24;96310.47;4182963;33;20133;-86
2022/08/31 06:21:56;;;;;;;;;;;21.90;70.90;;;21.33;65.57;96305.75;4183012;33;19952;-86
2022/08/31 06:24:28;;;;;;;;;;;21.90;71.20;;;21.34;65.39;96301.81;4183016;33;20165;-85
2022/08/31 06:26:58;;;;;;;;;;;21.90;71.20;;;21.34;65.44;96301.81;4205712;33;20099;-86
2022/08/31 06:29:30;;;;;;;;;;;22.00;71.20;;;21.35;65.37;96305.38;4206049;33;20221;-86
2022/08/31 06:32:04;;;;;;;;;;;22.00;71.10;;;21.36;65.56;96307.03;4182950;33;19910;-86
2022/08/31 06:34:34;;;;;;;;;;;22.00;71.10;;;21.36;65.30;96313.44;4182819;33;20163;-86
2022/08/31 06:37:06;;;;;;;;;;;22.00;70.90;;;21.36;65.47;96307.84;4205461;33;19903;-86
2022/08/31 06:39:53;;;;;;;;;;;22.00;71.10;;;21.36;65.34;96312.59;4182686;33;19903;-86
2022/08/31 06:42:48;;;;;;;;;;;22.00;71.00;;;21.36;65.19;96316.22;4202872;33;19909;-86
2022/08/31 06:45:47;;;;;;;;;;;22.00;71.10;;;21.37;65.55;96315.03;4182353;33;19993;-86
2022/08/31 06:48:34;;;;;;;;;;;22.00;71.00;;;21.36;65.62;96310.63;4226655;33;19902;-86
2022/08/31 06:51:03;;;;;;;;;;;22.00;71.10;;;21.37;65.44;96312.25;4205952;33;20023;-86
2022/08/31 06:53:32;;;;;;;;;;;22.00;71.10;;;21.38;65.48;96302.75;4182665;33;20133;-86
2022/08/31 06:56:10;;;;;;;;;;;22.00;71.10;;;21.35;65.42;96311.78;4206306;33;19928;-86
2022/08/31 06:59:07;;;;;;;;;;;22.00;71.10;;;21.38;65.52;96311.09;4205638;33;19903;-85
2022/08/31 07:01:54;;;;;;;;;;;22.00;71.10;;;21.38;65.60;96311.09;4205791;33;20164;-86
2022/08/31 07:04:33;;;;;;;;;;;22.00;71.20;;;21.39;65.47;96318.28;4205875;33;20241;-86
2022/08/31 07:07:03;;;;;;;;;;;22.00;71.10;;;21.39;65.35;96309.94;4205308;33;20224;-86
2022/08/31 07:09:31;;;;;;;;;;;22.00;71.10;;;21.41;65.42;96316.00;4205859;33;20266;-87
2022/08/31 07:12:02;;;;;;;;;;;22.00;71.10;;;21.41;65.38;96315.19;4182568;33;19902;-86
2022/08/31 07:14:30;;;;;;;;;;;22.00;71.00;;;21.42;65.32;96309.28;4205614;33;19906;-86
2022/08/31 07:17:01;;;;;;;;;;;22.00;71.00;;;21.43;65.08;96316.47;4206633;33;19914;-86
2022/08/31 07:19:32;;;;;;;;;;;22.10;71.00;;;21.48;65.37;96317.44;4210046;33;20137;-86
2022/08/31 07:22:05;;;;;;;;;;;22.10;71.00;;;21.51;64.90;96325.91;4210128;33;20258;-86
2022/08/31 07:24:35;;;;;;;;;;;22.10;70.90;;;21.55;64.89;96318.53;4210202;33;19925;-86
2022/08/31 07:27:08;;;;;;;;;;;22.10;70.80;;;21.59;64.87;96324.22;4208732;33;19909;-86
2022/08/31 07:29:54;;;;;;;;;;;22.20;70.70;;;21.61;64.77;96316.38;4182090;33;19909;-86
2022/08/31 07:32:23;;;;;;;;;;;22.20;70.60;;;21.64;64.44;96312.91;4205413;33;20206;-86
2022/08/31 07:34:52;;;;;;;;;;;22.20;70.50;;;21.67;64.65;96309.44;4182245;33;19902;-86
2022/08/31 07:43:12;;;;;;;;;;;22.30;70.30;;;21.74;64.71;96315.28;4205214;33;20116;-86
2022/08/31 07:45:42;;;;;;;;;;;22.30;70.20;;;21.73;64.46;96313.66;4181685;33;19902;-85
2022/08/31 07:48:11;;;;;;;;;;;22.30;70.10;;;21.72;64.01;96317.59;4181973;33;19902;-85
2022/08/31 07:51:00;;;;;;;;;;;22.30;70.10;;;21.70;64.40;96314.34;4205226;33;20290;-87
2022/08/31 07:53:49;;;;;;;;;;;22.30;70.10;;;21.68;64.62;96316.63;4207391;33;19903;-87
2022/08/31 07:56:30;;;;;;;;;;;22.30;70.30;;;21.67;64.67;96323.38;4181559;33;19910;-87
2022/08/31 07:59:33;;;;;;;;;;;22.30;70.20;;;21.67;64.85;96322.56;4192675;33;20076;-86
2022/08/31 08:02:03;;;;;;;;;;;22.30;70.30;;;21.65;64.63;96319.31;4182009;33;20230;-86
2022/08/31 08:04:37;;;;;;;;;;;22.30;70.30;;;21.64;64.94;96314.88;4205015;33;20159;-86
2022/08/31 08:07:45;;;;;;;;;;;22.30;70.40;;;21.63;65.13;96319.63;4152675;34;20297;-87
2022/08/31 08:10:47;;;;;;;;;;;22.20;70.40;;;21.62;64.90;96326.38;4136094;34;20034;-86
2022/08/31 08:13:34;;;;;;;;;;;22.20;70.30;;;21.62;64.96;96323.59;4196327;33;20282;-86
2022/08/31 08:16:11;;;;;;;;;;;22.20;70.30;;;21.61;64.74;96319.16;4181307;33;20240;-86
2022/08/31 08:19:12;;;;;;;;;;;22.20;70.40;;;21.60;64.85;96320.31;4174487;33;20130;-85
2022/08/31 08:21:42;;;;;;;;;;;22.20;70.40;;;21.60;65.03;96320.31;4181822;33;19910;-85
2022/08/31 08:24:11;;;;;;;;;;;22.20;70.50;;;21.59;65.04;96321.44;4219023;33;20257;-85
2022/08/31 08:27:06;;;;;;;;;;;22.20;70.50;;;21.57;65.03;96321.75;4214709;33;19902;-86
2022/08/31 08:29:55;;;;;;;;;;;22.20;70.60;;;21.56;65.06;96313.75;4204238;33;20069;-86
2022/08/31 08:32:30;;;;;;;;;;;22.20;70.70;;;21.56;65.08;96319.34;4204913;33;19990;-85
2022/08/31 08:34:58;;;;;;;;;;;22.20;70.50;;;21.56;64.99;96320.13;4181494;33;19903;-86
2022/08/31 08:37:28;;;;;;;;;;;22.20;70.60;;;21.55;65.09;96315.75;4204258;33;19910;-86
2022/08/31 08:39:58;;;;;;;;;;;22.20;70.70;;;21.53;64.87;96306.91;4183371;33;20151;-86
2022/08/31 08:42:27;;;;;;;;;;;22.20;70.60;;;21.54;65.11;96316.06;4207228;33;19902;-85
2022/08/31 08:44:55;;;;;;;;;;;22.20;70.70;;;21.51;65.15;96314.78;4207096;33;19909;-85
2022/08/31 08:47:27;;;;;;;;;;;22.20;70.70;;;21.53;65.07;96317.22;4183704;33;19910;-85
2022/08/31 08:50:04;;;;;;;;;;;22.20;70.70;;;21.52;65.10;96313.63;4208734;33;20036;-86
2022/08/31 08:52:40;;;;;;;;;;;22.10;70.80;;;21.51;65.10;96313.94;4207048;33;20023;-84
2022/08/31 08:55:14;;;;;;;;;;;22.20;70.70;;;21.51;65.27;96317.56;4207054;33;20119;-85
2022/08/31 08:57:44;;;;;;;;;;;22.10;70.90;;;21.50;65.24;96313.16;4206859;33;20141;-85
2022/08/31 09:00:17;;;;;;;;;;;22.10;70.80;;;21.50;65.31;96306.75;4183922;33;20440;-86
2022/08/31 09:02:56;;;;;;;;;;;22.10;70.90;;;21.49;65.37;96305.16;4183733;33;19910;-86
2022/08/31 09:05:54;;;;;;;;;;;22.10;70.80;;;21.48;65.23;96307.09;4206418;33;19910;-85
2022/08/31 09:09:07;;;;;;;;;;;22.10;70.90;;;21.48;65.45;96300.72;4183805;33;20057;-85
2022/08/31 09:11:48;;;;;;;;;;;22.10;71.00;;;21.48;65.17;96300.72;4206997;33;20107;-85
2022/08/31 09:14:47;;;;;;;;;;;22.10;71.00;;;21.46;65.58;96304.66;4183699;33;19903;-86
2022/08/31 09:17:29;;;;;;;;;;;22.10;71.00;;;21.46;65.17;96299.09;4183384;33;20210;-85
2022/08/31 09:20:04;;;;;;;;;;;22.10;71.00;;;21.45;65.20;96296.63;4191333;33;20129;-85
2022/08/31 09:22:48;;;;;;;;;;;22.10;71.00;;;21.45;65.32;96296.63;4234942;33;19941;-86
2022/08/31 09:25:37;;;;;;;;;;;22.10;70.90;;;21.44;65.21;96293.03;4206884;33;20237;-84
2022/08/31 09:28:38;;;;;;;;;;;22.10;70.90;;;21.43;65.12;96291.41;4217983;33;19910;-86
2022/08/31 09:31:36;;;;;;;;;;;22.10;70.90;;;21.44;65.28;96289.44;4210663;33;19910;-86
2022/08/31 09:34:27;;;;;;;;;;;22.10;71.00;;;21.44;65.14;96292.22;4183608;33;20118;-86
2022/08/31 09:37:15;;;;;;;;;;;22.10;71.90;;;21.44;65.18;96290.25;4183178;33;20137;-86
2022/08/31 09:39:47;;;;;;;;;;;22.10;70.90;;;21.45;65.25;96286.31;4206543;33;19914;-85
2022/08/31 09:42:27;;;;;;;;;;;22.10;71.00;;;21.46;65.09;96292.69;4206543;33;19903;-86
2022/08/31 09:44:58;;;;;;;;;;;22.10;70.80;;;21.46;65.09;96282.38;4183363;33;20316;-86
2022/08/31 09:47:54;;;;;;;;;;;22.10;70.80;;;21.47;65.31;96283.19;4206109;33;19903;-86
2022/08/31 09:50:33;;;;;;;;;;;22.10;70.80;;;21.48;65.07;96281.22;4205896;33;19903;-86
2022/08/31 09:56:14;;;;;;;;;;;22.10;70.70;;;21.49;65.14;96272.53;4183122;33;20159;-85
2022/08/31 09:58:46;;;;;;;;;;;22.10;70.60;;;21.50;64.90;96264.97;4206581;33;19933;-84
2022/08/31 10:01:22;;;;;;;;;;;22.10;70.60;;;21.52;65.16;96265.44;4183242;33;20249;-85
2022/08/31 10:03:51;;;;;;;;;;;22.20;70.60;;;21.53;64.88;96269.88;4206421;33;19903;-86
2022/08/31 10:06:45;;;;;;;;;;;22.20;70.50;;;21.54;65.10;96268.72;4205711;33;20148;-87
2022/08/31 10:09:42;;;;;;;;;;;22.20;70.60;;;21.55;64.75;96270.34;4183118;33;19906;-88
2022/08/31 10:12:17;;;;;;;;;;;22.20;70.60;;;21.55;64.92;96267.56;4183108;33;20062;-86
2022/08/31 10:14:50;;;;;;;;;;;22.20;70.50;;;21.55;64.98;96270.34;4183085;33;20062;-86
2022/08/31 10:17:25;;;;;;;;;;;22.20;70.50;;;21.55;64.90;96262.81;4182622;33;19917;-87
2022/08/31 10:19:56;;;;;;;;;;;22.20;70.40;;;21.53;65.08;96259.56;4205940;33;20244;-87
2022/08/31 10:22:31;;;;;;;;;;;22.20;71.30;;;21.55;64.82;96261.97;4211257;33;19909;-86
2022/08/31 10:25:20;;;;;;;;;;;22.20;70.50;;;21.56;64.94;96258.03;4234416;33;19909;-86
2022/08/31 10:27:52;;;;;;;;;;;22.20;70.60;;;21.54;64.91;96260.34;4234975;33;19909;-85
2022/08/31 10:30:27;;;;;;;;;;;22.20;70.60;;;21.53;64.76;96255.94;4235075;33;19902;-86
2022/08/31 10:33:01;;;;;;;;;;;22.20;70.60;;;21.53;65.02;96248.41;4234279;33;19903;-86
2022/08/31 10:35:36;;;;;;;;;;;22.20;70.50;;;21.54;64.70;96243.63;4234695;33;19910;-86
2022/08/31 10:38:11;;;;;;;;;;;22.20;70.40;;;21.54;65.00;96243.63;4234282;33;19902;-86
2022/08/31 10:40:44;;;;;;;;;;;22.20;70.50;;;21.53;64.77;96228.91;4233973;33;20037;-85
2022/08/31 10:43:20;;;;;;;;;;;22.20;70.40;;;21.56;64.83;96230.19;4234232;33;20304;-86
2022/08/31 10:45:51;;;;;;;;;;;22.20;70.40;;;21.56;64.99;96235.75;4210003;33;19941;-85
2022/08/31 10:48:21;;;;;;;;;;;22.20;70.50;;;21.55;64.66;96234.97;4210720;33;20115;-86
2022/08/31 10:50:57;;;;;;;;;;;22.20;71.20;;;21.57;64.69;96231.81;4210411;33;20069;-86
2022/08/31 10:53:36;;;;;;;;;;;22.20;70.40;;;21.57;64.73;96220.69;4210496;33;20129;-86
2022/08/31 10:56:13;;;;;;;;;;;22.20;70.40;;;21.57;64.74;96220.69;4210102;33;19939;-86
2022/08/31 10:59:03;;;;;;;;;;;22.20;70.30;;;21.58;64.76;96227.88;4210554;33;19953;-87
2022/08/31 11:01:39;;;;;;;;;;;22.20;70.40;;;21.59;64.73;96222.00;4233742;33;19925;-86
2022/08/31 11:04:35;;;;;;;;;;;22.20;70.30;;;21.60;64.97;96225.59;4233955;33;20175;-87
2022/08/31 11:07:12;;;;;;;;;;;22.20;70.40;;;21.61;64.69;96221.66;4219103;33;19902;-86
2022/08/31 11:09:45;;;;;;;;;;;22.20;70.30;;;21.63;64.90;96227.69;4210386;33;19910;-86
2022/08/31 11:12:17;;;;;;;;;;;22.20;70.40;;;21.64;64.75;96215.38;4192947;33;19903;-86
2022/08/31 11:15:09;;;;;;;;;;;22.20;70.40;;;21.65;64.74;96219.00;4182454;33;19950;-87
2022/08/31 11:18:23;;;;;;;;;;;22.20;70.30;;;21.66;64.90;96212.28;4204983;33;19902;-86
2022/08/31 11:21:34;;;;;;;;;;;22.30;70.30;;;21.67;64.69;96214.72;4205326;33;19902;-87
2022/08/31 11:24:39;;;;;;;;;;;22.30;70.30;;;21.68;64.79;96216.34;4205505;33;20037;-86
2022/08/31 11:27:10;;;;;;;;;;;22.30;70.30;;;21.68;64.48;96210.78;4200675;33;19902;-87
2022/08/31 11:29:42;;;;;;;;;;;22.30;70.20;;;21.69;64.87;96204.03;4205368;33;19902;-86
2022/08/31 11:32:18;;;;;;;;;;;22.30;70.30;;;21.69;64.56;96201.25;4182127;33;19910;-86
2022/08/31 11:34:50;;;;;;;;;;;22.30;70.20;;;21.70;64.60;96197.31;4205378;33;19903;-87
2022/08/31 11:37:51;;;;;;;;;;;22.30;70.20;;;21.72;64.73;96186.66;4204723;33;20025;-87
2022/08/31 11:41:02;;;;;;;;;;;22.30;70.10;;;21.74;64.75;96191.88;4175918;33;20022;-87
2022/08/31 11:43:50;;;;;;;;;;;22.30;70.20;;;21.75;64.83;96185.13;4179488;33;19903;-87
2022/08/31 11:47:00;;;;;;;;;;;22.30;70.10;;;21.75;64.48;96182.34;4181618;33;19902;-86
2022/08/31 11:49:45;;;;;;;;;;;22.40;70.20;;;21.76;64.77;96175.63;4205134;33;19913;-87
2022/08/31 11:52:44;;;;;;;;;;;22.40;70.20;;;21.77;64.50;96168.88;4186534;33;20210;-87
2022/08/31 11:55:20;;;;;;;;;;;22.40;70.10;;;21.76;64.69;96165.28;4203737;33;19910;-87
2022/08/31 11:58:30;;;;;;;;;;;22.40;70.10;;;21.76;64.75;96170.84;4209187;33;19909;-87
2022/08/31 12:01:05;;;;;;;;;;;22.40;70.10;;;21.75;64.88;96166.44;4233102;33;20108;-86
2022/08/31 12:03:54;;;;;;;;;;;22.40;70.20;;;21.75;64.88;96160.84;4233144;33;19903;-84
2022/08/31 12:06:59;;;;;;;;;;;22.40;70.10;;;21.76;64.56;96165.28;4209274;33;19903;-85
2022/08/31 12:09:55;;;;;;;;;;;22.40;70.10;;;21.75;64.88;96157.28;4204997;33;20107;-84